sensor_id;sensor_type;location;lat;lon;timestamp;temperature;humidity
25716;DHT22;13573;50.936;4.328;2023-05-02T00:04:01;10.70;99.90
25716;DHT22;13573;50.936;4.328;2023-05-02T00:13:50;11.00;99.90
25716;DHT22;13573;50.936;4.328;2023-05-02T00:16:16;11.80;99.90
25716;DHT22;13573;50.936;4.328;2023-05-02T00:18:43;11.80;99.90
25716;DHT22;13573;50.936;4.328;2023-05-02T00:21:10;11.90;99.90
25716;DHT22;13573;50.936;4.328;2023-05-02T00:23:37;11.00;99.90
25716;DHT22;13573;50.936;4.328;2023-05-02T00:26:08;11.90;99.90
25716;DHT22;13573;50.936;4.328;2023-05-02T00:38:23;13.00;99.90
25716;DHT22;13573;50.936;4.328;2023-05-02T00:40:49;12.40;99.90
25716;DHT22;13573;50.936;4.328;2023-05-02T00:48:13;12.60;99.90
25716;DHT22;13573;50.936;4.328;2023-05-02T00:50:41;12.90;99.90
25716;DHT22;13573;50.936;4.328;2023-05-02T00:53:09;12.70;99.90
25716;DHT22;13573;50.936;4.328;2023-05-02T00:55:36;12.70;99.90
25716;DHT22;13573;50.936;4.328;2023-05-02T00:58:06;14.10;99.90
25716;DHT22;13573;50.936;4.328;2023-05-02T01:00:53;12.50;99.90
25716;DHT22;13573;50.936;4.328;2023-05-02T01:05:55;12.30;99.90
25716;DHT22;13573;50.936;4.328;2023-05-02T01:08:28;12.50;99.90
25716;DHT22;13573;50.936;4.328;2023-05-02T01:11:00;13.90;99.90
25716;DHT22;13573;50.936;4.328;2023-05-02T01:13:31;13.90;99.90
25716;DHT22;13573;50.936;4.328;2023-05-02T01:18:29;12.50;99.90
25716;DHT22;13573;50.936;4.328;2023-05-02T01:21:00;13.10;99.90
25716;DHT22;13573;50.936;4.328;2023-05-02T01:23:37;12.40;99.90
25716;DHT22;13573;50.936;4.328;2023-05-02T01:26:11;12.30;99.90
25716;DHT22;13573;50.936;4.328;2023-05-02T01:29:14;12.10;99.90
25716;DHT22;13573;50.936;4.328;2023-05-02T01:31:30;12.30;99.90
25716;DHT22;13573;50.936;4.328;2023-05-02T01:38:54;12.40;99.90
25716;DHT22;13573;50.936;4.328;2023-05-02T01:43:51;12.30;99.90
25716;DHT22;13573;50.936;4.328;2023-05-02T01:46:19;12.20;99.90
25716;DHT22;13573;50.936;4.328;2023-05-02T01:48:47;12.10;99.90
25716;DHT22;13573;50.936;4.328;2023-05-02T01:51:17;13.70;99.90
25716;DHT22;13573;50.936;4.328;2023-05-02T01:53:45;12.50;99.90
25716;DHT22;13573;50.936;4.328;2023-05-02T01:56:17;12.60;99.90
25716;DHT22;13573;50.936;4.328;2023-05-02T01:58:46;12.50;99.90
25716;DHT22;13573;50.936;4.328;2023-05-02T02:03:41;12.30;99.90
25716;DHT22;13573;50.936;4.328;2023-05-02T02:06:09;12.50;99.90
25716;DHT22;13573;50.936;4.328;2023-05-02T02:08:36;12.10;99.90
25716;DHT22;13573;50.936;4.328;2023-05-02T02:13:38;12.70;99.90
25716;DHT22;13573;50.936;4.328;2023-05-02T02:21:05;12.60;99.90
25716;DHT22;13573;50.936;4.328;2023-05-02T02:23:33;12.60;99.90
25716;DHT22;13573;50.936;4.328;2023-05-02T02:26:03;11.90;99.90
25716;DHT22;13573;50.936;4.328;2023-05-02T02:28:30;12.40;99.90
25716;DHT22;13573;50.936;4.328;2023-05-02T02:30:58;12.00;99.90
25716;DHT22;13573;50.936;4.328;2023-05-02T02:33:28;11.80;99.90
25716;DHT22;13573;50.936;4.328;2023-05-02T02:36:06;12.00;99.90
25716;DHT22;13573;50.936;4.328;2023-05-02T02:38:41;11.90;99.90
25716;DHT22;13573;50.936;4.328;2023-05-02T02:49:12;12.10;99.90
25716;DHT22;13573;50.936;4.328;2023-05-02T02:54:13;11.90;99.90
25716;DHT22;13573;50.936;4.328;2023-05-02T02:56:44;11.80;99.90
25716;DHT22;13573;50.936;4.328;2023-05-02T02:59:15;12.10;99.90
25716;DHT22;13573;50.936;4.328;2023-05-02T03:01:45;12.20;99.90
25716;DHT22;13573;50.936;4.328;2023-05-02T03:04:12;13.30;99.90
25716;DHT22;13573;50.936;4.328;2023-05-02T03:11:36;12.00;99.90
25716;DHT22;13573;50.936;4.328;2023-05-02T03:14:03;11.70;99.90
25716;DHT22;13573;50.936;4.328;2023-05-02T03:16:34;12.00;99.90
25716;DHT22;13573;50.936;4.328;2023-05-02T03:19:03;11.60;99.90
25716;DHT22;13573;50.936;4.328;2023-05-02T03:21:30;11.10;99.90
25716;DHT22;13573;50.936;4.328;2023-05-02T03:26:25;11.40;99.90
25716;DHT22;13573;50.936;4.328;2023-05-02T03:28:53;10.70;99.90
25716;DHT22;13573;50.936;4.328;2023-05-02T03:31:19;11.10;99.90
25716;DHT22;13573;50.936;4.328;2023-05-02T03:36:14;10.70;99.90
25716;DHT22;13573;50.936;4.328;2023-05-02T03:41:08;10.80;99.90
25716;DHT22;13573;50.936;4.328;2023-05-02T03:46:05;10.70;99.90
25716;DHT22;13573;50.936;4.328;2023-05-02T03:48:33;10.60;99.90
25716;DHT22;13573;50.936;4.328;2023-05-02T03:53:28;12.00;99.90
25716;DHT22;13573;50.936;4.328;2023-05-02T03:55:56;11.00;99.90
25716;DHT22;13573;50.936;4.328;2023-05-02T04:05:45;10.30;99.90
25716;DHT22;13573;50.936;4.328;2023-05-02T04:08:12;10.40;99.90
25716;DHT22;13573;50.936;4.328;2023-05-02T04:13:05;10.60;99.90
25716;DHT22;13573;50.936;4.328;2023-05-02T04:15:32;10.50;99.90
25716;DHT22;13573;50.936;4.328;2023-05-02T04:17:59;10.80;99.90
25716;DHT22;13573;50.936;4.328;2023-05-02T04:20:25;10.10;99.90
25716;DHT22;13573;50.936;4.328;2023-05-02T04:22:52;10.70;99.90
25716;DHT22;13573;50.936;4.328;2023-05-02T04:25:18;10.80;99.90
25716;DHT22;13573;50.936;4.328;2023-05-02T04:27:45;10.80;99.90
25716;DHT22;13573;50.936;4.328;2023-05-02T04:30:12;10.60;99.90
25716;DHT22;13573;50.936;4.328;2023-05-02T04:32:39;10.60;99.90
25716;DHT22;13573;50.936;4.328;2023-05-02T04:35:06;10.50;99.90
25716;DHT22;13573;50.936;4.328;2023-05-02T04:37:32;10.90;99.90
25716;DHT22;13573;50.936;4.328;2023-05-02T04:44:52;10.60;99.90
25716;DHT22;13573;50.936;4.328;2023-05-02T04:47:19;10.60;99.90
25716;DHT22;13573;50.936;4.328;2023-05-02T04:57:06;11.00;99.90
25716;DHT22;13573;50.936;4.328;2023-05-02T04:59:35;12.10;99.90
25716;DHT22;13573;50.936;4.328;2023-05-02T05:02:03;11.20;99.90
25716;DHT22;13573;50.936;4.328;2023-05-02T05:06:56;11.50;99.90
25716;DHT22;13573;50.936;4.328;2023-05-02T05:09:23;11.40;99.90
25716;DHT22;13573;50.936;4.328;2023-05-02T05:11:49;11.80;99.90
25716;DHT22;13573;50.936;4.328;2023-05-02T05:14:16;11.80;99.90
25716;DHT22;13573;50.936;4.328;2023-05-02T05:16:43;11.70;99.90
25716;DHT22;13573;50.936;4.328;2023-05-02T05:19:09;11.50;99.90
25716;DHT22;13573;50.936;4.328;2023-05-02T05:21:36;11.70;99.90
25716;DHT22;13573;50.936;4.328;2023-05-02T05:28:56;11.80;99.90
25716;DHT22;13573;50.936;4.328;2023-05-02T05:36:16;11.80;99.90
25716;DHT22;13573;50.936;4.328;2023-05-02T05:38:43;12.00;99.90
25716;DHT22;13573;50.936;4.328;2023-05-02T05:43:37;12.00;99.90
25716;DHT22;13573;50.936;4.328;2023-05-02T05:55:53;13.30;99.90
25716;DHT22;13573;50.936;4.328;2023-05-02T06:08:06;12.50;99.90
25716;DHT22;13573;50.936;4.328;2023-05-02T06:22:46;12.50;99.90
25716;DHT22;13573;50.936;4.328;2023-05-02T06:25:13;13.60;99.90
25716;DHT22;13573;50.936;4.328;2023-05-02T06:27:40;12.90;99.90
25716;DHT22;13573;50.936;4.328;2023-05-02T06:44:50;12.80;99.90
25716;DHT22;13573;50.936;4.328;2023-05-02T06:47:17;14.30;99.90
25716;DHT22;13573;50.936;4.328;2023-05-02T06:52:10;13.10;99.90
25716;DHT22;13573;50.936;4.328;2023-05-02T06:59:31;13.70;99.90
25716;DHT22;13573;50.936;4.328;2023-05-02T07:04:24;13.60;99.90
25716;DHT22;13573;50.936;4.328;2023-05-02T07:21:31;14.60;99.90
25716;DHT22;13573;50.936;4.328;2023-05-02T07:33:46;15.50;99.90
25716;DHT22;13573;50.936;4.328;2023-05-02T07:36:13;15.70;99.90
25716;DHT22;13573;50.936;4.328;2023-05-02T07:46:03;18.40;99.90
25716;DHT22;13573;50.936;4.328;2023-05-02T07:51:05;19.30;99.90
25716;DHT22;13573;50.936;4.328;2023-05-02T07:53:32;21.10;99.90
25716;DHT22;13573;50.936;4.328;2023-05-02T07:55:59;21.60;99.90
25716;DHT22;13573;50.936;4.328;2023-05-02T08:00:53;22.20;99.90
25716;DHT22;13573;50.936;4.328;2023-05-02T08:03:19;22.70;99.90
25716;DHT22;13573;50.936;4.328;2023-05-02T08:08:13;23.10;99.90
25716;DHT22;13573;50.936;4.328;2023-05-02T08:13:06;22.20;99.90
25716;DHT22;13573;50.936;4.328;2023-05-02T08:17:59;22.10;99.90
25716;DHT22;13573;50.936;4.328;2023-05-02T08:20:26;21.40;99.90
25716;DHT22;13573;50.936;4.328;2023-05-02T08:22:53;20.00;99.90
25716;DHT22;13573;50.936;4.328;2023-05-02T08:25:19;20.40;99.90
25716;DHT22;13573;50.936;4.328;2023-05-02T08:35:06;20.30;99.90
25716;DHT22;13573;50.936;4.328;2023-05-02T08:40:01;22.40;99.90
25716;DHT22;13573;50.936;4.328;2023-05-02T08:42:28;22.40;99.90
25716;DHT22;13573;50.936;4.328;2023-05-02T08:44:57;22.70;99.90
25716;DHT22;13573;50.936;4.328;2023-05-02T08:47:24;22.40;99.90
25716;DHT22;13573;50.936;4.328;2023-05-02T08:52:20;23.10;99.90
25716;DHT22;13573;50.936;4.328;2023-05-02T08:57:16;23.50;99.90
25716;DHT22;13573;50.936;4.328;2023-05-02T09:02:17;24.00;99.90
25716;DHT22;13573;50.936;4.328;2023-05-02T09:04:44;24.10;99.90
25716;DHT22;13573;50.936;4.328;2023-05-02T09:07:12;24.40;99.90
25716;DHT22;13573;50.936;4.328;2023-05-02T09:12:06;23.50;99.90
25716;DHT22;13573;50.936;4.328;2023-05-02T09:24:26;24.10;99.90
25716;DHT22;13573;50.936;4.328;2023-05-02T09:29:26;24.20;99.90
25716;DHT22;13573;50.936;4.328;2023-05-02T09:31:54;25.00;99.90
25716;DHT22;13573;50.936;4.328;2023-05-02T09:36:49;25.70;99.90
25716;DHT22;13573;50.936;4.328;2023-05-02T09:39:22;26.90;99.90
25716;DHT22;13573;50.936;4.328;2023-05-02T09:41:49;28.20;99.90
25716;DHT22;13573;50.936;4.328;2023-05-02T09:44:18;29.20;97.90
25716;DHT22;13573;50.936;4.328;2023-05-02T09:46:47;29.00;97.90
25716;DHT22;13573;50.936;4.328;2023-05-02T09:49:14;28.50;97.70
25716;DHT22;13573;50.936;4.328;2023-05-02T09:51:44;28.70;98.40
25716;DHT22;13573;50.936;4.328;2023-05-02T09:54:13;28.90;96.60
25716;DHT22;13573;50.936;4.328;2023-05-02T09:56:51;27.80;96.50
25716;DHT22;13573;50.936;4.328;2023-05-02T09:59:18;26.80;98.90
25716;DHT22;13573;50.936;4.328;2023-05-02T10:04:20;25.90;99.80
25716;DHT22;13573;50.936;4.328;2023-05-02T10:06:50;26.30;99.90
25716;DHT22;13573;50.936;4.328;2023-05-02T10:09:18;26.40;97.00
25716;DHT22;13573;50.936;4.328;2023-05-02T10:11:47;26.20;98.00
25716;DHT22;13573;50.936;4.328;2023-05-02T10:14:15;27.10;99.30
25716;DHT22;13573;50.936;4.328;2023-05-02T10:16:54;27.70;97.20
25716;DHT22;13573;50.936;4.328;2023-05-02T10:19:29;27.80;97.60
25716;DHT22;13573;50.936;4.328;2023-05-02T10:21:56;29.80;96.70
25716;DHT22;13573;50.936;4.328;2023-05-02T10:26:51;27.10;97.60
25716;DHT22;13573;50.936;4.328;2023-05-02T10:29:18;27.60;97.30
25716;DHT22;13573;50.936;4.328;2023-05-02T10:31:46;27.70;97.90
25716;DHT22;13573;50.936;4.328;2023-05-02T10:34:17;28.90;95.20
25716;DHT22;13573;50.936;4.328;2023-05-02T10:36:45;28.70;94.80
25716;DHT22;13573;50.936;4.328;2023-05-02T10:39:12;29.20;96.00
25716;DHT22;13573;50.936;4.328;2023-05-02T10:41:40;28.40;93.30
25716;DHT22;13573;50.936;4.328;2023-05-02T10:44:07;28.50;95.30
25716;DHT22;13573;50.936;4.328;2023-05-02T10:46:36;28.40;95.00
25716;DHT22;13573;50.936;4.328;2023-05-02T10:49:07;27.70;95.20
25716;DHT22;13573;50.936;4.328;2023-05-02T10:51:35;28.20;93.60
25716;DHT22;13573;50.936;4.328;2023-05-02T11:01:52;24.60;96.00
25716;DHT22;13573;50.936;4.328;2023-05-02T11:04:19;25.20;95.60
25716;DHT22;13573;50.936;4.328;2023-05-02T11:07:15;27.60;95.20
25716;DHT22;13573;50.936;4.328;2023-05-02T11:09:31;28.10;94.50
25716;DHT22;13573;50.936;4.328;2023-05-02T11:11:58;26.20;94.40
25716;DHT22;13573;50.936;4.328;2023-05-02T11:14:40;26.50;94.90
25716;DHT22;13573;50.936;4.328;2023-05-02T11:22:33;26.00;95.30
25716;DHT22;13573;50.936;4.328;2023-05-02T11:25:00;27.50;94.10
25716;DHT22;13573;50.936;4.328;2023-05-02T11:27:43;27.80;94.30
25716;DHT22;13573;50.936;4.328;2023-05-02T11:30:11;27.20;94.40
25716;DHT22;13573;50.936;4.328;2023-05-02T11:33:10;26.40;94.40
25716;DHT22;13573;50.936;4.328;2023-05-02T11:35:40;27.30;93.50
25716;DHT22;13573;50.936;4.328;2023-05-02T11:43:19;24.80;94.10
25716;DHT22;13573;50.936;4.328;2023-05-02T11:45:46;26.00;95.00
25716;DHT22;13573;50.936;4.328;2023-05-02T11:48:15;26.80;94.20
25716;DHT22;13573;50.936;4.328;2023-05-02T11:50:47;27.10;94.20
25716;DHT22;13573;50.936;4.328;2023-05-02T11:53:16;26.60;94.60
25716;DHT22;13573;50.936;4.328;2023-05-02T12:00:38;25.00;94.70
25716;DHT22;13573;50.936;4.328;2023-05-02T12:03:05;25.40;95.10
25716;DHT22;13573;50.936;4.328;2023-05-02T12:05:32;25.20;94.00
25716;DHT22;13573;50.936;4.328;2023-05-02T12:13:04;27.10;93.10
25716;DHT22;13573;50.936;4.328;2023-05-02T12:15:31;28.20;92.30
25716;DHT22;13573;50.936;4.328;2023-05-02T12:20:26;28.50;90.60
25716;DHT22;13573;50.936;4.328;2023-05-02T12:22:53;29.80;90.80
25716;DHT22;13573;50.936;4.328;2023-05-02T12:25:20;30.10;90.60
25716;DHT22;13573;50.936;4.328;2023-05-02T12:27:58;30.00;89.30
25716;DHT22;13573;50.936;4.328;2023-05-02T12:30:26;28.50;90.40
25716;DHT22;13573;50.936;4.328;2023-05-02T12:32:58;27.00;92.20
25716;DHT22;13573;50.936;4.328;2023-05-02T12:37:54;25.40;93.00
25716;DHT22;13573;50.936;4.328;2023-05-02T12:40:22;24.30;93.40
25716;DHT22;13573;50.936;4.328;2023-05-02T12:42:58;25.10;93.50
25716;DHT22;13573;50.936;4.328;2023-05-02T12:45:27;25.00;93.70
25716;DHT22;13573;50.936;4.328;2023-05-02T12:47:56;24.70;91.90
25716;DHT22;13573;50.936;4.328;2023-05-02T12:52:57;26.10;91.30
25716;DHT22;13573;50.936;4.328;2023-05-02T12:55:25;26.10;92.30
25716;DHT22;13573;50.936;4.328;2023-05-02T12:58:01;26.30;93.00
25716;DHT22;13573;50.936;4.328;2023-05-02T13:05:26;27.70;91.30
25716;DHT22;13573;50.936;4.328;2023-05-02T13:07:53;27.50;91.10
25716;DHT22;13573;50.936;4.328;2023-05-02T13:10:21;26.70;90.60
25716;DHT22;13573;50.936;4.328;2023-05-02T13:15:18;28.20;88.50
25716;DHT22;13573;50.936;4.328;2023-05-02T13:17:45;28.40;90.00
25716;DHT22;13573;50.936;4.328;2023-05-02T13:20:12;28.80;90.00
25716;DHT22;13573;50.936;4.328;2023-05-02T13:22:39;28.30;90.00
25716;DHT22;13573;50.936;4.328;2023-05-02T13:25:07;28.10;90.20
25716;DHT22;13573;50.936;4.328;2023-05-02T13:30:00;25.60;89.70
25716;DHT22;13573;50.936;4.328;2023-05-02T13:32:27;26.40;90.20
25716;DHT22;13573;50.936;4.328;2023-05-02T13:37:21;26.70;91.00
25716;DHT22;13573;50.936;4.328;2023-05-02T13:39:48;26.40;90.40
25716;DHT22;13573;50.936;4.328;2023-05-02T13:42:14;25.60;90.50
25716;DHT22;13573;50.936;4.328;2023-05-02T13:44:41;26.80;90.90
25716;DHT22;13573;50.936;4.328;2023-05-02T13:47:08;27.20;90.20
25716;DHT22;13573;50.936;4.328;2023-05-02T13:49:34;27.50;90.00
25716;DHT22;13573;50.936;4.328;2023-05-02T13:52:02;27.00;90.20
25716;DHT22;13573;50.936;4.328;2023-05-02T13:54:29;26.60;87.10
25716;DHT22;13573;50.936;4.328;2023-05-02T13:56:55;26.20;90.40
25716;DHT22;13573;50.936;4.328;2023-05-02T13:59:22;26.60;91.30
25716;DHT22;13573;50.936;4.328;2023-05-02T14:01:49;26.60;91.10
25716;DHT22;13573;50.936;4.328;2023-05-02T14:04:15;25.80;89.20
25716;DHT22;13573;50.936;4.328;2023-05-02T14:06:43;26.30;88.70
25716;DHT22;13573;50.936;4.328;2023-05-02T14:09:09;26.20;90.00
25716;DHT22;13573;50.936;4.328;2023-05-02T14:11:36;26.80;90.40
25716;DHT22;13573;50.936;4.328;2023-05-02T14:14:02;26.40;90.10
25716;DHT22;13573;50.936;4.328;2023-05-02T14:16:29;25.20;89.70
25716;DHT22;13573;50.936;4.328;2023-05-02T14:21:22;25.80;90.10
25716;DHT22;13573;50.936;4.328;2023-05-02T14:23:49;25.50;88.00
25716;DHT22;13573;50.936;4.328;2023-05-02T14:26:16;26.10;89.50
25716;DHT22;13573;50.936;4.328;2023-05-02T14:28:42;26.20;88.20
25716;DHT22;13573;50.936;4.328;2023-05-02T14:31:09;25.80;89.80
25716;DHT22;13573;50.936;4.328;2023-05-02T14:36:03;25.80;91.30
25716;DHT22;13573;50.936;4.328;2023-05-02T14:40:56;23.90;92.00
25716;DHT22;13573;50.936;4.328;2023-05-02T14:45:52;23.10;92.10
25716;DHT22;13573;50.936;4.328;2023-05-02T14:50:45;22.30;91.20
25716;DHT22;13573;50.936;4.328;2023-05-02T14:55:39;22.00;90.80
25716;DHT22;13573;50.936;4.328;2023-05-02T14:58:07;21.70;92.80
25716;DHT22;13573;50.936;4.328;2023-05-02T15:00:36;21.50;93.60
25716;DHT22;13573;50.936;4.328;2023-05-02T15:07:59;20.80;94.40
25716;DHT22;13573;50.936;4.328;2023-05-02T15:15:20;20.70;95.20
25716;DHT22;13573;50.936;4.328;2023-05-02T15:17:51;20.60;94.30
25716;DHT22;13573;50.936;4.328;2023-05-02T15:20:17;20.30;94.50
25716;DHT22;13573;50.936;4.328;2023-05-02T15:25:11;20.40;95.50
25716;DHT22;13573;50.936;4.328;2023-05-02T15:27:38;19.10;94.40
25716;DHT22;13573;50.936;4.328;2023-05-02T15:32:33;20.30;94.90
25716;DHT22;13573;50.936;4.328;2023-05-02T15:34:59;20.10;94.50
25716;DHT22;13573;50.936;4.328;2023-05-02T15:37:26;20.30;92.60
25716;DHT22;13573;50.936;4.328;2023-05-02T15:47:13;20.10;94.50
25716;DHT22;13573;50.936;4.328;2023-05-02T15:49:39;19.90;95.50
25716;DHT22;13573;50.936;4.328;2023-05-02T15:52:06;19.90;95.30
25716;DHT22;13573;50.936;4.328;2023-05-02T16:01:54;19.90;93.90
25716;DHT22;13573;50.936;4.328;2023-05-02T16:04:21;20.10;95.70
25716;DHT22;13573;50.936;4.328;2023-05-02T16:09:14;19.80;95.70
25716;DHT22;13573;50.936;4.328;2023-05-02T16:11:40;19.70;94.90
25716;DHT22;13573;50.936;4.328;2023-05-02T16:14:07;20.60;95.70
25716;DHT22;13573;50.936;4.328;2023-05-02T16:21:27;19.70;96.00
25716;DHT22;13573;50.936;4.328;2023-05-02T16:23:54;19.50;95.90
25716;DHT22;13573;50.936;4.328;2023-05-02T16:28:47;20.60;94.90
25716;DHT22;13573;50.936;4.328;2023-05-02T16:31:14;19.00;96.70
25716;DHT22;13573;50.936;4.328;2023-05-02T16:33:40;19.00;97.10
25716;DHT22;13573;50.936;4.328;2023-05-02T16:36:08;19.00;97.10
25716;DHT22;13573;50.936;4.328;2023-05-02T16:41:03;17.70;97.30
25716;DHT22;13573;50.936;4.328;2023-05-02T16:43:31;18.30;97.80
25716;DHT22;13573;50.936;4.328;2023-05-02T16:45:59;18.60;98.00
25716;DHT22;13573;50.936;4.328;2023-05-02T16:48:26;18.10;97.90
25716;DHT22;13573;50.936;4.328;2023-05-02T16:50:53;18.60;99.20
25716;DHT22;13573;50.936;4.328;2023-05-02T16:53:20;18.60;99.10
25716;DHT22;13573;50.936;4.328;2023-05-02T16:58:14;18.40;99.20
25716;DHT22;13573;50.936;4.328;2023-05-02T17:00:41;18.00;99.90
25716;DHT22;13573;50.936;4.328;2023-05-02T17:03:08;18.20;99.90
25716;DHT22;13573;50.936;4.328;2023-05-02T17:05:34;19.10;99.90
25716;DHT22;13573;50.936;4.328;2023-05-02T17:10:28;18.10;99.90
25716;DHT22;13573;50.936;4.328;2023-05-02T17:12:55;18.00;99.90
25716;DHT22;13573;50.936;4.328;2023-05-02T17:17:50;17.00;98.40
25716;DHT22;13573;50.936;4.328;2023-05-02T17:20:17;17.80;99.90
25716;DHT22;13573;50.936;4.328;2023-05-02T17:22:45;17.70;99.90
25716;DHT22;13573;50.936;4.328;2023-05-02T17:25:12;17.40;99.90
25716;DHT22;13573;50.936;4.328;2023-05-02T17:30:06;17.30;99.90
25716;DHT22;13573;50.936;4.328;2023-05-02T17:32:33;17.40;99.90
25716;DHT22;13573;50.936;4.328;2023-05-02T17:35:02;17.00;99.90
25716;DHT22;13573;50.936;4.328;2023-05-02T17:37:29;16.90;99.90
25716;DHT22;13573;50.936;4.328;2023-05-02T17:39:56;16.80;99.90
25716;DHT22;13573;50.936;4.328;2023-05-02T17:44:51;16.50;99.90
25716;DHT22;13573;50.936;4.328;2023-05-02T17:47:17;16.40;99.90
25716;DHT22;13573;50.936;4.328;2023-05-02T17:49:45;16.40;99.90
25716;DHT22;13573;50.936;4.328;2023-05-02T17:57:07;16.40;99.90
25716;DHT22;13573;50.936;4.328;2023-05-02T17:59:37;16.20;99.90
25716;DHT22;13573;50.936;4.328;2023-05-02T18:04:31;16.20;99.90
25716;DHT22;13573;50.936;4.328;2023-05-02T18:07:00;16.30;99.90
25716;DHT22;13573;50.936;4.328;2023-05-02T18:09:26;15.90;99.90
25716;DHT22;13573;50.936;4.328;2023-05-02T18:14:22;15.50;99.80
25716;DHT22;13573;50.936;4.328;2023-05-02T18:16:48;15.80;99.90
25716;DHT22;13573;50.936;4.328;2023-05-02T18:26:36;15.60;99.90
25716;DHT22;13573;50.936;4.328;2023-05-02T18:29:03;15.30;99.90
25716;DHT22;13573;50.936;4.328;2023-05-02T18:33:57;15.00;99.90
25716;DHT22;13573;50.936;4.328;2023-05-02T18:38:52;14.70;99.90
25716;DHT22;13573;50.936;4.328;2023-05-02T18:41:19;15.00;99.90
25716;DHT22;13573;50.936;4.328;2023-05-02T18:43:46;14.80;99.90
25716;DHT22;13573;50.936;4.328;2023-05-02T18:46:13;16.00;99.90
25716;DHT22;13573;50.936;4.328;2023-05-02T18:48:39;14.60;99.90
25716;DHT22;13573;50.936;4.328;2023-05-02T18:51:06;14.70;99.90
25716;DHT22;13573;50.936;4.328;2023-05-02T18:56:00;14.80;99.90
25716;DHT22;13573;50.936;4.328;2023-05-02T18:58:27;14.60;99.90
25716;DHT22;13573;50.936;4.328;2023-05-02T19:08:15;13.80;99.90
25716;DHT22;13573;50.936;4.328;2023-05-02T19:10:42;13.80;99.90
25716;DHT22;13573;50.936;4.328;2023-05-02T19:13:09;13.50;99.90
25716;DHT22;13573;50.936;4.328;2023-05-02T19:15:35;14.00;99.90
25716;DHT22;13573;50.936;4.328;2023-05-02T19:20:29;13.60;99.90
25716;DHT22;13573;50.936;4.328;2023-05-02T19:22:56;13.60;99.90
25716;DHT22;13573;50.936;4.328;2023-05-02T19:25:23;13.60;99.90
25716;DHT22;13573;50.936;4.328;2023-05-02T19:27:49;13.50;99.90
25716;DHT22;13573;50.936;4.328;2023-05-02T19:30:17;13.40;99.90
25716;DHT22;13573;50.936;4.328;2023-05-02T19:35:12;13.40;99.90
25716;DHT22;13573;50.936;4.328;2023-05-02T19:37:40;13.30;99.90
25716;DHT22;13573;50.936;4.328;2023-05-02T19:40:09;13.20;99.90
25716;DHT22;13573;50.936;4.328;2023-05-02T19:42:36;12.20;99.90
25716;DHT22;13573;50.936;4.328;2023-05-02T19:49:57;13.00;99.90
25716;DHT22;13573;50.936;4.328;2023-05-02T19:54:50;13.00;99.90
25716;DHT22;13573;50.936;4.328;2023-05-02T19:57:17;11.70;99.90
25716;DHT22;13573;50.936;4.328;2023-05-02T19:59:44;12.60;99.90
25716;DHT22;13573;50.936;4.328;2023-05-02T20:02:10;12.50;99.90
25716;DHT22;13573;50.936;4.328;2023-05-02T20:11:57;12.30;99.90
25716;DHT22;13573;50.936;4.328;2023-05-02T20:14:24;12.50;99.90
25716;DHT22;13573;50.936;4.328;2023-05-02T20:16:51;12.30;99.90
25716;DHT22;13573;50.936;4.328;2023-05-02T20:19:19;13.20;99.90
25716;DHT22;13573;50.936;4.328;2023-05-02T20:21:46;11.80;99.90
25716;DHT22;13573;50.936;4.328;2023-05-02T20:24:13;12.20;99.90
25716;DHT22;13573;50.936;4.328;2023-05-02T20:26:39;11.80;99.90
25716;DHT22;13573;50.936;4.328;2023-05-02T20:29:06;11.80;99.90
25716;DHT22;13573;50.936;4.328;2023-05-02T20:31:34;11.80;99.90
25716;DHT22;13573;50.936;4.328;2023-05-02T20:34:01;12.00;99.90
25716;DHT22;13573;50.936;4.328;2023-05-02T20:38:55;12.20;99.90
25716;DHT22;13573;50.936;4.328;2023-05-02T20:41:22;12.10;99.90
25716;DHT22;13573;50.936;4.328;2023-05-02T20:43:52;11.70;99.90
25716;DHT22;13573;50.936;4.328;2023-05-02T20:46:20;11.40;99.90
25716;DHT22;13573;50.936;4.328;2023-05-02T20:48:47;11.60;99.90
25716;DHT22;13573;50.936;4.328;2023-05-02T20:51:14;11.10;99.90
25716;DHT22;13573;50.936;4.328;2023-05-02T20:53:41;11.10;99.90
25716;DHT22;13573;50.936;4.328;2023-05-02T21:01:02;11.20;99.90
25716;DHT22;13573;50.936;4.328;2023-05-02T21:08:24;10.50;99.90
25716;DHT22;13573;50.936;4.328;2023-05-02T21:13:18;10.60;99.90
25716;DHT22;13573;50.936;4.328;2023-05-02T21:18:11;11.20;99.90
25716;DHT22;13573;50.936;4.328;2023-05-02T21:20:38;10.90;99.90
25716;DHT22;13573;50.936;4.328;2023-05-02T21:23:06;10.60;99.90
25716;DHT22;13573;50.936;4.328;2023-05-02T21:25:35;10.90;99.90
25716;DHT22;13573;50.936;4.328;2023-05-02T21:28:03;10.80;99.90
25716;DHT22;13573;50.936;4.328;2023-05-02T21:30:30;10.60;99.90
25716;DHT22;13573;50.936;4.328;2023-05-02T21:32:57;12.00;99.90
25716;DHT22;13573;50.936;4.328;2023-05-02T21:35:24;10.70;99.90
25716;DHT22;13573;50.936;4.328;2023-05-02T21:40:17;10.10;99.90
25716;DHT22;13573;50.936;4.328;2023-05-02T21:42:44;10.30;99.90
25716;DHT22;13573;50.936;4.328;2023-05-02T21:50:04;10.10;99.90
25716;DHT22;13573;50.936;4.328;2023-05-02T21:52:31;10.50;99.90
25716;DHT22;13573;50.936;4.328;2023-05-02T21:57:24;10.10;99.90
25716;DHT22;13573;50.936;4.328;2023-05-02T21:59:51;10.10;99.90
25716;DHT22;13573;50.936;4.328;2023-05-02T22:02:18;9.80;99.90
25716;DHT22;13573;50.936;4.328;2023-05-02T22:04:44;9.60;99.90
25716;DHT22;13573;50.936;4.328;2023-05-02T22:07:13;9.60;99.90
25716;DHT22;13573;50.936;4.328;2023-05-02T22:09:40;9.40;99.90
25716;DHT22;13573;50.936;4.328;2023-05-02T22:12:07;9.30;99.90
25716;DHT22;13573;50.936;4.328;2023-05-02T22:14:34;9.50;99.90
25716;DHT22;13573;50.936;4.328;2023-05-02T22:19:29;9.20;99.90
25716;DHT22;13573;50.936;4.328;2023-05-02T22:21:56;9.30;99.90
25716;DHT22;13573;50.936;4.328;2023-05-02T22:29:20;9.10;99.90
25716;DHT22;13573;50.936;4.328;2023-05-02T22:34:14;9.20;99.90
25716;DHT22;13573;50.936;4.328;2023-05-02T22:36:41;9.20;99.90
25716;DHT22;13573;50.936;4.328;2023-05-02T22:39:08;9.20;99.90
25716;DHT22;13573;50.936;4.328;2023-05-02T22:41:36;9.30;99.90
25716;DHT22;13573;50.936;4.328;2023-05-02T22:46:30;9.00;99.90
25716;DHT22;13573;50.936;4.328;2023-05-02T22:56:20;8.80;99.90
25716;DHT22;13573;50.936;4.328;2023-05-02T22:58:47;8.80;99.90
25716;DHT22;13573;50.936;4.328;2023-05-02T23:01:15;9.00;99.90
25716;DHT22;13573;50.936;4.328;2023-05-02T23:08:35;7.40;99.90
25716;DHT22;13573;50.936;4.328;2023-05-02T23:13:28;8.30;99.90
25716;DHT22;13573;50.936;4.328;2023-05-02T23:15:55;8.60;99.90
25716;DHT22;13573;50.936;4.328;2023-05-02T23:20:48;9.30;99.90
25716;DHT22;13573;50.936;4.328;2023-05-02T23:23:15;8.50;99.90
25716;DHT22;13573;50.936;4.328;2023-05-02T23:25:41;8.50;99.90
25716;DHT22;13573;50.936;4.328;2023-05-02T23:28:08;8.60;99.90
25716;DHT22;13573;50.936;4.328;2023-05-02T23:30:37;8.30;99.90
25716;DHT22;13573;50.936;4.328;2023-05-02T23:33:05;8.40;99.90